sensor_id;sensor_type;location;lat;lon;timestamp;P1;durP1;ratioP1;P2;durP2;ratioP2
15102;SDS011;7652;53.584;9.998;2023-07-08T00:01:04;5.93;;;3.37;;
15102;SDS011;7652;53.584;9.998;2023-07-08T00:04:29;4.27;;;3.20;;
15102;SDS011;7652;53.584;9.998;2023-07-08T00:07:51;5.20;;;3.20;;
15102;SDS011;7652;53.584;9.998;2023-07-08T00:11:14;3.90;;;3.50;;
15102;SDS011;7652;53.584;9.998;2023-07-08T00:14:36;5.17;;;3.30;;
15102;SDS011;7652;53.584;9.998;2023-07-08T00:17:58;5.97;;;3.60;;
15102;SDS011;7652;53.584;9.998;2023-07-08T00:21:19;5.30;;;3.13;;
15102;SDS011;7652;53.584;9.998;2023-07-08T00:24:41;3.53;;;3.10;;
15102;SDS011;7652;53.584;9.998;2023-07-08T00:28:07;4.23;;;3.23;;
15102;SDS011;7652;53.584;9.998;2023-07-08T00:31:30;4.40;;;4.00;;
15102;SDS011;7652;53.584;9.998;2023-07-08T00:34:52;5.47;;;4.00;;
15102;SDS011;7652;53.584;9.998;2023-07-08T00:38:14;4.30;;;2.93;;
15102;SDS011;7652;53.584;9.998;2023-07-08T00:41:47;4.10;;;2.80;;
15102;SDS011;7652;53.584;9.998;2023-07-08T00:45:15;5.43;;;3.20;;
15102;SDS011;7652;53.584;9.998;2023-07-08T00:48:42;5.23;;;3.30;;
15102;SDS011;7652;53.584;9.998;2023-07-08T00:52:18;3.83;;;3.30;;
15102;SDS011;7652;53.584;9.998;2023-07-08T00:55:42;5.20;;;3.33;;
15102;SDS011;7652;53.584;9.998;2023-07-08T00:59:04;5.53;;;3.70;;
15102;SDS011;7652;53.584;9.998;2023-07-08T01:02:31;6.57;;;3.60;;
15102;SDS011;7652;53.584;9.998;2023-07-08T01:05:56;5.03;;;3.57;;
15102;SDS011;7652;53.584;9.998;2023-07-08T01:09:20;3.83;;;3.40;;
15102;SDS011;7652;53.584;9.998;2023-07-08T01:12:43;4.47;;;4.03;;
15102;SDS011;7652;53.584;9.998;2023-07-08T01:16:07;4.10;;;3.60;;
15102;SDS011;7652;53.584;9.998;2023-07-08T01:19:30;4.93;;;3.30;;
15102;SDS011;7652;53.584;9.998;2023-07-08T01:22:54;4.20;;;3.80;;
15102;SDS011;7652;53.584;9.998;2023-07-08T01:26:16;4.27;;;3.67;;
15102;SDS011;7652;53.584;9.998;2023-07-08T01:29:39;4.03;;;3.67;;
15102;SDS011;7652;53.584;9.998;2023-07-08T01:33:02;4.40;;;3.80;;
15102;SDS011;7652;53.584;9.998;2023-07-08T01:36:27;5.63;;;3.80;;
15102;SDS011;7652;53.584;9.998;2023-07-08T01:39:53;4.13;;;3.73;;
15102;SDS011;7652;53.584;9.998;2023-07-08T01:43:14;4.10;;;3.70;;
15102;SDS011;7652;53.584;9.998;2023-07-08T01:46:36;4.07;;;3.67;;
15102;SDS011;7652;53.584;9.998;2023-07-08T01:49:58;5.57;;;3.87;;
15102;SDS011;7652;53.584;9.998;2023-07-08T01:53:21;4.13;;;3.73;;
15102;SDS011;7652;53.584;9.998;2023-07-08T01:56:55;4.50;;;4.03;;
15102;SDS011;7652;53.584;9.998;2023-07-08T02:00:17;4.07;;;3.67;;
15102;SDS011;7652;53.584;9.998;2023-07-08T02:03:38;6.27;;;4.13;;
15102;SDS011;7652;53.584;9.998;2023-07-08T02:07:04;4.40;;;4.00;;
15102;SDS011;7652;53.584;9.998;2023-07-08T02:10:25;4.50;;;3.90;;
15102;SDS011;7652;53.584;9.998;2023-07-08T02:13:48;5.67;;;4.13;;
15102;SDS011;7652;53.584;9.998;2023-07-08T02:17:10;5.87;;;3.80;;
15102;SDS011;7652;53.584;9.998;2023-07-08T02:20:31;4.37;;;3.97;;
15102;SDS011;7652;53.584;9.998;2023-07-08T02:23:52;6.27;;;3.83;;
15102;SDS011;7652;53.584;9.998;2023-07-08T02:27:15;5.47;;;4.53;;
15102;SDS011;7652;53.584;9.998;2023-07-08T02:30:39;5.47;;;4.57;;
15102;SDS011;7652;53.584;9.998;2023-07-08T02:34:02;4.60;;;4.13;;
15102;SDS011;7652;53.584;9.998;2023-07-08T02:37:23;5.60;;;4.33;;
15102;SDS011;7652;53.584;9.998;2023-07-08T02:40:45;6.03;;;4.37;;
15102;SDS011;7652;53.584;9.998;2023-07-08T02:44:06;5.70;;;4.40;;
15102;SDS011;7652;53.584;9.998;2023-07-08T02:47:29;5.07;;;4.43;;
15102;SDS011;7652;53.584;9.998;2023-07-08T02:50:51;4.97;;;4.20;;
15102;SDS011;7652;53.584;9.998;2023-07-08T02:54:20;5.10;;;3.90;;
15102;SDS011;7652;53.584;9.998;2023-07-08T02:57:41;6.87;;;4.50;;
15102;SDS011;7652;53.584;9.998;2023-07-08T03:01:03;4.57;;;4.17;;
15102;SDS011;7652;53.584;9.998;2023-07-08T03:04:27;5.07;;;4.37;;
15102;SDS011;7652;53.584;9.998;2023-07-08T03:07:51;4.67;;;4.20;;
15102;SDS011;7652;53.584;9.998;2023-07-08T03:11:12;6.93;;;4.37;;
15102;SDS011;7652;53.584;9.998;2023-07-08T03:14:34;4.87;;;3.77;;
15102;SDS011;7652;53.584;9.998;2023-07-08T03:17:56;4.43;;;3.77;;
15102;SDS011;7652;53.584;9.998;2023-07-08T03:21:21;4.70;;;4.10;;
15102;SDS011;7652;53.584;9.998;2023-07-08T03:24:43;7.73;;;3.87;;
15102;SDS011;7652;53.584;9.998;2023-07-08T03:28:06;5.70;;;3.93;;
15102;SDS011;7652;53.584;9.998;2023-07-08T03:31:34;4.90;;;3.73;;
15102;SDS011;7652;53.584;9.998;2023-07-08T03:34:56;4.57;;;4.10;;
15102;SDS011;7652;53.584;9.998;2023-07-08T03:38:18;6.77;;;4.33;;
15102;SDS011;7652;53.584;9.998;2023-07-08T03:41:40;4.77;;;3.47;;
15102;SDS011;7652;53.584;9.998;2023-07-08T03:45:03;4.07;;;3.60;;
15102;SDS011;7652;53.584;9.998;2023-07-08T03:48:25;4.90;;;3.87;;
15102;SDS011;7652;53.584;9.998;2023-07-08T03:51:47;4.30;;;3.53;;
15102;SDS011;7652;53.584;9.998;2023-07-08T03:55:11;5.43;;;3.70;;
15102;SDS011;7652;53.584;9.998;2023-07-08T03:58:32;4.53;;;3.83;;
15102;SDS011;7652;53.584;9.998;2023-07-08T04:01:54;4.00;;;3.60;;
15102;SDS011;7652;53.584;9.998;2023-07-08T04:05:16;4.23;;;3.83;;
15102;SDS011;7652;53.584;9.998;2023-07-08T04:08:38;4.60;;;4.20;;
15102;SDS011;7652;53.584;9.998;2023-07-08T04:12:01;4.00;;;3.60;;
15102;SDS011;7652;53.584;9.998;2023-07-08T04:15:24;4.33;;;3.50;;
15102;SDS011;7652;53.584;9.998;2023-07-08T04:18:48;3.90;;;3.60;;
15102;SDS011;7652;53.584;9.998;2023-07-08T04:22:13;3.80;;;3.40;;
15102;SDS011;7652;53.584;9.998;2023-07-08T04:25:34;5.07;;;3.33;;
15102;SDS011;7652;53.584;9.998;2023-07-08T04:28:57;4.93;;;3.20;;
15102;SDS011;7652;53.584;9.998;2023-07-08T04:32:19;3.93;;;3.37;;
15102;SDS011;7652;53.584;9.998;2023-07-08T04:35:45;3.47;;;3.17;;
15102;SDS011;7652;53.584;9.998;2023-07-08T04:39:07;4.03;;;3.23;;
15102;SDS011;7652;53.584;9.998;2023-07-08T04:42:30;3.83;;;3.33;;
15102;SDS011;7652;53.584;9.998;2023-07-08T04:45:52;4.00;;;3.60;;
15102;SDS011;7652;53.584;9.998;2023-07-08T04:49:14;3.93;;;3.10;;
15102;SDS011;7652;53.584;9.998;2023-07-08T04:52:35;4.17;;;3.23;;
15102;SDS011;7652;53.584;9.998;2023-07-08T04:55:57;3.50;;;3.00;;
15102;SDS011;7652;53.584;9.998;2023-07-08T04:59:20;6.87;;;2.90;;
15102;SDS011;7652;53.584;9.998;2023-07-08T05:02:43;3.20;;;2.80;;
15102;SDS011;7652;53.584;9.998;2023-07-08T05:06:05;3.37;;;2.53;;
15102;SDS011;7652;53.584;9.998;2023-07-08T05:09:27;3.33;;;2.63;;
15102;SDS011;7652;53.584;9.998;2023-07-08T05:12:48;4.53;;;2.90;;
15102;SDS011;7652;53.584;9.998;2023-07-08T05:16:10;5.63;;;3.13;;
15102;SDS011;7652;53.584;9.998;2023-07-08T05:19:34;3.97;;;2.77;;
15102;SDS011;7652;53.584;9.998;2023-07-08T05:22:55;3.07;;;2.60;;
15102;SDS011;7652;53.584;9.998;2023-07-08T05:26:17;4.53;;;2.83;;
15102;SDS011;7652;53.584;9.998;2023-07-08T05:29:38;3.83;;;2.60;;
15102;SDS011;7652;53.584;9.998;2023-07-08T05:33:00;4.90;;;2.70;;
15102;SDS011;7652;53.584;9.998;2023-07-08T05:36:23;3.07;;;2.60;;
15102;SDS011;7652;53.584;9.998;2023-07-08T05:39:45;4.13;;;2.93;;
15102;SDS011;7652;53.584;9.998;2023-07-08T05:43:06;2.83;;;2.60;;
15102;SDS011;7652;53.584;9.998;2023-07-08T05:46:28;4.93;;;2.63;;
15102;SDS011;7652;53.584;9.998;2023-07-08T05:49:50;2.93;;;2.40;;
15102;SDS011;7652;53.584;9.998;2023-07-08T05:53:13;2.63;;;2.13;;
15102;SDS011;7652;53.584;9.998;2023-07-08T05:56:34;3.17;;;2.20;;
15102;SDS011;7652;53.584;9.998;2023-07-08T05:59:56;4.37;;;2.20;;
15102;SDS011;7652;53.584;9.998;2023-07-08T06:03:17;2.63;;;2.30;;
15102;SDS011;7652;53.584;9.998;2023-07-08T06:06:39;2.40;;;2.20;;
15102;SDS011;7652;53.584;9.998;2023-07-08T06:10:01;2.70;;;2.20;;
15102;SDS011;7652;53.584;9.998;2023-07-08T06:13:23;2.97;;;2.50;;
15102;SDS011;7652;53.584;9.998;2023-07-08T06:16:44;11.30;;;2.80;;
15102;SDS011;7652;53.584;9.998;2023-07-08T06:20:07;2.40;;;2.00;;
15102;SDS011;7652;53.584;9.998;2023-07-08T06:23:28;5.00;;;2.60;;
15102;SDS011;7652;53.584;9.998;2023-07-08T06:26:52;4.80;;;2.33;;
15102;SDS011;7652;53.584;9.998;2023-07-08T06:30:17;2.80;;;2.33;;
15102;SDS011;7652;53.584;9.998;2023-07-08T06:33:38;4.00;;;2.53;;
15102;SDS011;7652;53.584;9.998;2023-07-08T06:37:00;4.10;;;2.33;;
15102;SDS011;7652;53.584;9.998;2023-07-08T06:40:21;3.47;;;1.97;;
15102;SDS011;7652;53.584;9.998;2023-07-08T06:43:44;4.10;;;2.17;;
15102;SDS011;7652;53.584;9.998;2023-07-08T06:47:06;2.90;;;2.20;;
15102;SDS011;7652;53.584;9.998;2023-07-08T06:50:27;3.70;;;2.40;;
15102;SDS011;7652;53.584;9.998;2023-07-08T06:53:49;2.10;;;1.90;;
15102;SDS011;7652;53.584;9.998;2023-07-08T06:57:10;3.37;;;2.00;;
15102;SDS011;7652;53.584;9.998;2023-07-08T07:00:33;3.17;;;2.17;;
15102;SDS011;7652;53.584;9.998;2023-07-08T07:03:54;2.23;;;2.10;;
15102;SDS011;7652;53.584;9.998;2023-07-08T07:07:16;3.20;;;2.27;;
15102;SDS011;7652;53.584;9.998;2023-07-08T07:10:38;2.73;;;2.50;;
15102;SDS011;7652;53.584;9.998;2023-07-08T07:13:59;2.70;;;2.20;;
15102;SDS011;7652;53.584;9.998;2023-07-08T07:17:22;3.13;;;2.30;;
15102;SDS011;7652;53.584;9.998;2023-07-08T07:20:49;2.20;;;2.00;;
15102;SDS011;7652;53.584;9.998;2023-07-08T07:24:13;3.00;;;2.33;;
15102;SDS011;7652;53.584;9.998;2023-07-08T07:27:34;2.27;;;2.00;;
15102;SDS011;7652;53.584;9.998;2023-07-08T07:30:56;2.10;;;1.90;;
15102;SDS011;7652;53.584;9.998;2023-07-08T07:34:20;3.13;;;2.10;;
15102;SDS011;7652;53.584;9.998;2023-07-08T07:37:42;2.53;;;2.00;;
15102;SDS011;7652;53.584;9.998;2023-07-08T07:41:04;2.37;;;2.20;;
15102;SDS011;7652;53.584;9.998;2023-07-08T07:44:26;4.53;;;2.37;;
15102;SDS011;7652;53.584;9.998;2023-07-08T07:47:47;2.37;;;1.87;;
15102;SDS011;7652;53.584;9.998;2023-07-08T07:51:11;2.13;;;1.90;;
15102;SDS011;7652;53.584;9.998;2023-07-08T07:54:32;3.00;;;2.17;;
15102;SDS011;7652;53.584;9.998;2023-07-08T07:57:54;2.00;;;1.80;;
15102;SDS011;7652;53.584;9.998;2023-07-08T08:01:16;2.37;;;2.00;;
15102;SDS011;7652;53.584;9.998;2023-07-08T08:04:38;2.27;;;1.93;;
15102;SDS011;7652;53.584;9.998;2023-07-08T08:08:00;4.77;;;2.07;;
15102;SDS011;7652;53.584;9.998;2023-07-08T08:11:23;2.40;;;1.87;;
15102;SDS011;7652;53.584;9.998;2023-07-08T08:14:45;2.50;;;2.30;;
15102;SDS011;7652;53.584;9.998;2023-07-08T08:18:07;3.40;;;1.90;;
15102;SDS011;7652;53.584;9.998;2023-07-08T08:21:28;2.27;;;2.07;;
15102;SDS011;7652;53.584;9.998;2023-07-08T08:24:51;4.07;;;2.10;;
15102;SDS011;7652;53.584;9.998;2023-07-08T08:28:12;2.37;;;1.97;;
15102;SDS011;7652;53.584;9.998;2023-07-08T08:31:34;2.50;;;2.30;;
15102;SDS011;7652;53.584;9.998;2023-07-08T08:34:55;2.07;;;1.93;;
15102;SDS011;7652;53.584;9.998;2023-07-08T08:38:19;4.13;;;1.80;;
15102;SDS011;7652;53.584;9.998;2023-07-08T08:41:42;2.53;;;1.87;;
15102;SDS011;7652;53.584;9.998;2023-07-08T08:45:05;2.27;;;2.07;;
15102;SDS011;7652;53.584;9.998;2023-07-08T08:48:31;2.20;;;2.00;;
15102;SDS011;7652;53.584;9.998;2023-07-08T08:51:58;3.13;;;1.90;;
15102;SDS011;7652;53.584;9.998;2023-07-08T08:55:20;2.90;;;2.20;;
15102;SDS011;7652;53.584;9.998;2023-07-08T08:58:43;1.97;;;1.80;;
15102;SDS011;7652;53.584;9.998;2023-07-08T09:05:54;2.43;;;2.03;;
15102;SDS011;7652;53.584;9.998;2023-07-08T09:09:22;2.40;;;2.20;;
15102;SDS011;7652;53.584;9.998;2023-07-08T09:12:51;2.40;;;2.13;;
15102;SDS011;7652;53.584;9.998;2023-07-08T09:16:18;2.63;;;2.20;;
15102;SDS011;7652;53.584;9.998;2023-07-08T09:19:47;3.47;;;2.10;;
15102;SDS011;7652;53.584;9.998;2023-07-08T09:23:14;3.40;;;1.87;;
15102;SDS011;7652;53.584;9.998;2023-07-08T09:26:41;3.53;;;1.87;;
15102;SDS011;7652;53.584;9.998;2023-07-08T09:30:02;3.77;;;1.97;;
15102;SDS011;7652;53.584;9.998;2023-07-08T09:33:26;2.40;;;2.20;;
15102;SDS011;7652;53.584;9.998;2023-07-08T09:36:47;3.13;;;1.90;;
15102;SDS011;7652;53.584;9.998;2023-07-08T09:40:14;2.20;;;2.00;;
15102;SDS011;7652;53.584;9.998;2023-07-08T09:43:38;2.47;;;2.27;;
15102;SDS011;7652;53.584;9.998;2023-07-08T09:47:00;2.80;;;1.80;;
15102;SDS011;7652;53.584;9.998;2023-07-08T09:50:23;3.47;;;2.17;;
15102;SDS011;7652;53.584;9.998;2023-07-08T09:53:45;2.23;;;2.10;;
15102;SDS011;7652;53.584;9.998;2023-07-08T09:57:09;2.67;;;2.20;;
15102;SDS011;7652;53.584;9.998;2023-07-08T10:00:34;2.10;;;1.83;;
15102;SDS011;7652;53.584;9.998;2023-07-08T10:04:00;2.67;;;2.47;;
15102;SDS011;7652;53.584;9.998;2023-07-08T10:07:25;3.17;;;2.00;;
15102;SDS011;7652;53.584;9.998;2023-07-08T10:10:52;2.23;;;2.03;;
15102;SDS011;7652;53.584;9.998;2023-07-08T10:14:23;2.60;;;2.40;;
15102;SDS011;7652;53.584;9.998;2023-07-08T10:17:48;2.30;;;2.10;;
15102;SDS011;7652;53.584;9.998;2023-07-08T10:21:12;2.20;;;2.00;;
15102;SDS011;7652;53.584;9.998;2023-07-08T10:24:55;3.77;;;2.20;;
15102;SDS011;7652;53.584;9.998;2023-07-08T10:28:27;2.37;;;2.17;;
15102;SDS011;7652;53.584;9.998;2023-07-08T10:32:00;2.00;;;1.90;;
15102;SDS011;7652;53.584;9.998;2023-07-08T10:35:27;2.30;;;2.10;;
15102;SDS011;7652;53.584;9.998;2023-07-08T10:38:55;2.10;;;2.00;;
15102;SDS011;7652;53.584;9.998;2023-07-08T10:42:35;2.77;;;2.53;;
15102;SDS011;7652;53.584;9.998;2023-07-08T10:46:14;2.30;;;2.10;;
15102;SDS011;7652;53.584;9.998;2023-07-08T10:49:47;1.97;;;1.87;;
15102;SDS011;7652;53.584;9.998;2023-07-08T10:53:22;2.10;;;1.90;;
15102;SDS011;7652;53.584;9.998;2023-07-08T10:56:58;2.70;;;2.00;;
15102;SDS011;7652;53.584;9.998;2023-07-08T11:00:35;2.80;;;2.10;;
15102;SDS011;7652;53.584;9.998;2023-07-08T11:04:07;2.53;;;2.10;;
15102;SDS011;7652;53.584;9.998;2023-07-08T11:07:41;2.43;;;2.20;;
15102;SDS011;7652;53.584;9.998;2023-07-08T11:11:07;3.03;;;2.13;;
15102;SDS011;7652;53.584;9.998;2023-07-08T11:14:39;2.30;;;2.10;;
15102;SDS011;7652;53.584;9.998;2023-07-08T11:18:06;4.47;;;2.33;;
15102;SDS011;7652;53.584;9.998;2023-07-08T11:21:35;2.93;;;2.23;;
15102;SDS011;7652;53.584;9.998;2023-07-08T11:25:04;3.93;;;2.30;;
15102;SDS011;7652;53.584;9.998;2023-07-08T11:28:37;2.30;;;2.07;;
15102;SDS011;7652;53.584;9.998;2023-07-08T11:31:58;2.50;;;2.30;;
15102;SDS011;7652;53.584;9.998;2023-07-08T11:35:32;2.33;;;2.10;;
15102;SDS011;7652;53.584;9.998;2023-07-08T11:38:57;2.10;;;1.97;;
15102;SDS011;7652;53.584;9.998;2023-07-08T11:42:21;2.50;;;2.30;;
15102;SDS011;7652;53.584;9.998;2023-07-08T11:45:46;5.00;;;2.20;;
15102;SDS011;7652;53.584;9.998;2023-07-08T11:49:12;4.33;;;2.10;;
15102;SDS011;7652;53.584;9.998;2023-07-08T11:52:37;3.13;;;2.20;;
15102;SDS011;7652;53.584;9.998;2023-07-08T11:55:59;3.20;;;2.30;;
15102;SDS011;7652;53.584;9.998;2023-07-08T11:59:22;3.27;;;2.00;;
15102;SDS011;7652;53.584;9.998;2023-07-08T12:02:50;2.67;;;2.10;;
15102;SDS011;7652;53.584;9.998;2023-07-08T12:10:06;3.10;;;2.40;;
15102;SDS011;7652;53.584;9.998;2023-07-08T12:13:32;3.70;;;2.00;;
15102;SDS011;7652;53.584;9.998;2023-07-08T12:16:56;2.30;;;2.10;;
15102;SDS011;7652;53.584;9.998;2023-07-08T12:20:19;4.88;;;2.55;;
15102;SDS011;7652;53.584;9.998;2023-07-08T12:23:43;2.40;;;2.20;;
15102;SDS011;7652;53.584;9.998;2023-07-08T12:27:09;2.58;;;2.30;;
15102;SDS011;7652;53.584;9.998;2023-07-08T12:30:32;2.70;;;2.30;;
15102;SDS011;7652;53.584;9.998;2023-07-08T12:33:55;3.10;;;2.30;;
15102;SDS011;7652;53.584;9.998;2023-07-08T12:37:16;3.20;;;2.28;;
15102;SDS011;7652;53.584;9.998;2023-07-08T12:40:38;2.38;;;2.20;;
15102;SDS011;7652;53.584;9.998;2023-07-08T12:44:02;3.80;;;2.08;;
15102;SDS011;7652;53.584;9.998;2023-07-08T12:47:29;2.97;;;2.30;;
15102;SDS011;7652;53.584;9.998;2023-07-08T12:50:50;2.40;;;2.20;;
15102;SDS011;7652;53.584;9.998;2023-07-08T12:54:12;2.75;;;2.55;;
15102;SDS011;7652;53.584;9.998;2023-07-08T12:57:35;3.85;;;2.47;;
15102;SDS011;7652;53.584;9.998;2023-07-08T13:00:58;2.65;;;2.17;;
15102;SDS011;7652;53.584;9.998;2023-07-08T13:04:24;2.72;;;2.42;;
15102;SDS011;7652;53.584;9.998;2023-07-08T13:07:46;2.40;;;2.20;;
15102;SDS011;7652;53.584;9.998;2023-07-08T13:11:07;2.97;;;2.33;;
15102;SDS011;7652;53.584;9.998;2023-07-08T13:14:28;2.70;;;2.50;;
15102;SDS011;7652;53.584;9.998;2023-07-08T13:17:51;2.45;;;2.25;;
15102;SDS011;7652;53.584;9.998;2023-07-08T13:21:14;2.90;;;2.58;;
15102;SDS011;7652;53.584;9.998;2023-07-08T13:24:37;3.17;;;2.35;;
15102;SDS011;7652;53.584;9.998;2023-07-08T13:28:00;2.42;;;2.17;;
15102;SDS011;7652;53.584;9.998;2023-07-08T13:31:24;4.32;;;2.50;;
15102;SDS011;7652;53.584;9.998;2023-07-08T13:34:53;2.67;;;2.47;;
15102;SDS011;7652;53.584;9.998;2023-07-08T13:38:16;2.78;;;2.58;;
15102;SDS011;7652;53.584;9.998;2023-07-08T13:41:41;2.65;;;2.42;;
15102;SDS011;7652;53.584;9.998;2023-07-08T13:45:04;3.05;;;2.67;;
15102;SDS011;7652;53.584;9.998;2023-07-08T13:48:34;2.72;;;2.53;;
15102;SDS011;7652;53.584;9.998;2023-07-08T13:52:06;2.88;;;2.67;;
15102;SDS011;7652;53.584;9.998;2023-07-08T13:55:29;3.97;;;3.03;;
15102;SDS011;7652;53.584;9.998;2023-07-08T13:58:51;3.85;;;2.85;;
15102;SDS011;7652;53.584;9.998;2023-07-08T14:02:15;3.25;;;2.60;;
15102;SDS011;7652;53.584;9.998;2023-07-08T14:05:38;2.88;;;2.67;;
15102;SDS011;7652;53.584;9.998;2023-07-08T14:09:05;3.40;;;3.10;;
15102;SDS011;7652;53.584;9.998;2023-07-08T14:12:31;3.40;;;2.88;;
15102;SDS011;7652;53.584;9.998;2023-07-08T14:15:52;2.92;;;2.50;;
15102;SDS011;7652;53.584;9.998;2023-07-08T14:19:17;2.78;;;2.58;;
15102;SDS011;7652;53.584;9.998;2023-07-08T14:22:42;4.55;;;2.80;;
15102;SDS011;7652;53.584;9.998;2023-07-08T14:26:08;3.63;;;2.75;;
15102;SDS011;7652;53.584;9.998;2023-07-08T14:29:31;3.15;;;2.80;;
15102;SDS011;7652;53.584;9.998;2023-07-08T14:32:52;3.00;;;2.75;;
15102;SDS011;7652;53.584;9.998;2023-07-08T14:36:14;3.22;;;2.90;;
15102;SDS011;7652;53.584;9.998;2023-07-08T14:39:35;2.60;;;2.40;;
15102;SDS011;7652;53.584;9.998;2023-07-08T14:42:59;4.20;;;2.65;;
15102;SDS011;7652;53.584;9.998;2023-07-08T14:46:24;2.97;;;2.63;;
15102;SDS011;7652;53.584;9.998;2023-07-08T14:49:46;3.25;;;3.05;;
15102;SDS011;7652;53.584;9.998;2023-07-08T14:53:07;3.20;;;2.90;;
15102;SDS011;7652;53.584;9.998;2023-07-08T14:56:29;3.42;;;3.13;;
15102;SDS011;7652;53.584;9.998;2023-07-08T14:59:52;3.35;;;3.03;;
15102;SDS011;7652;53.584;9.998;2023-07-08T15:03:14;4.85;;;3.22;;
15102;SDS011;7652;53.584;9.998;2023-07-08T15:06:36;5.20;;;3.03;;
15102;SDS011;7652;53.584;9.998;2023-07-08T15:09:57;5.80;;;2.95;;
15102;SDS011;7652;53.584;9.998;2023-07-08T15:13:20;3.05;;;2.45;;
15102;SDS011;7652;53.584;9.998;2023-07-08T15:16:46;3.40;;;3.10;;
15102;SDS011;7652;53.584;9.998;2023-07-08T15:20:09;3.72;;;3.00;;
15102;SDS011;7652;53.584;9.998;2023-07-08T15:23:33;3.13;;;2.92;;
15102;SDS011;7652;53.584;9.998;2023-07-08T15:26:55;3.50;;;2.72;;
15102;SDS011;7652;53.584;9.998;2023-07-08T15:30:17;3.20;;;2.92;;
15102;SDS011;7652;53.584;9.998;2023-07-08T15:33:42;3.65;;;3.35;;
15102;SDS011;7652;53.584;9.998;2023-07-08T15:37:04;3.88;;;3.05;;
15102;SDS011;7652;53.584;9.998;2023-07-08T15:40:26;4.97;;;3.13;;
15102;SDS011;7652;53.584;9.998;2023-07-08T15:43:52;3.95;;;2.88;;
15102;SDS011;7652;53.584;9.998;2023-07-08T15:47:15;4.40;;;3.08;;
15102;SDS011;7652;53.584;9.998;2023-07-08T15:50:38;3.42;;;2.47;;
15102;SDS011;7652;53.584;9.998;2023-07-08T15:54:00;5.50;;;2.70;;
15102;SDS011;7652;53.584;9.998;2023-07-08T15:57:21;4.47;;;3.70;;
15102;SDS011;7652;53.584;9.998;2023-07-08T16:00:42;6.20;;;3.10;;
15102;SDS011;7652;53.584;9.998;2023-07-08T16:04:04;3.05;;;2.85;;
15102;SDS011;7652;53.584;9.998;2023-07-08T16:07:27;3.65;;;3.30;;
15102;SDS011;7652;53.584;9.998;2023-07-08T16:10:49;3.10;;;2.80;;
15102;SDS011;7652;53.584;9.998;2023-07-08T16:14:13;3.17;;;2.97;;
15102;SDS011;7652;53.584;9.998;2023-07-08T16:17:35;3.40;;;3.10;;
15102;SDS011;7652;53.584;9.998;2023-07-08T16:20:58;4.78;;;3.03;;
15102;SDS011;7652;53.584;9.998;2023-07-08T16:24:21;3.33;;;2.60;;
15102;SDS011;7652;53.584;9.998;2023-07-08T16:27:42;6.50;;;2.78;;
15102;SDS011;7652;53.584;9.998;2023-07-08T16:31:08;4.20;;;3.10;;
15102;SDS011;7652;53.584;9.998;2023-07-08T16:34:31;4.05;;;3.00;;
15102;SDS011;7652;53.584;9.998;2023-07-08T16:37:53;2.90;;;2.50;;
15102;SDS011;7652;53.584;9.998;2023-07-08T16:41:16;4.43;;;2.53;;
15102;SDS011;7652;53.584;9.998;2023-07-08T16:44:39;3.47;;;3.20;;
15102;SDS011;7652;53.584;9.998;2023-07-08T16:48:01;5.45;;;4.03;;
15102;SDS011;7652;53.584;9.998;2023-07-08T16:51:24;3.63;;;3.05;;
15102;SDS011;7652;53.584;9.998;2023-07-08T16:54:47;6.05;;;3.05;;
15102;SDS011;7652;53.584;9.998;2023-07-08T16:58:10;4.43;;;3.33;;
15102;SDS011;7652;53.584;9.998;2023-07-08T17:01:32;4.13;;;3.20;;
15102;SDS011;7652;53.584;9.998;2023-07-08T17:04:54;2.93;;;2.57;;
15102;SDS011;7652;53.584;9.998;2023-07-08T17:08:16;3.47;;;3.10;;
15102;SDS011;7652;53.584;9.998;2023-07-08T17:11:37;3.80;;;3.00;;
15102;SDS011;7652;53.584;9.998;2023-07-08T17:15:00;3.37;;;2.60;;
15102;SDS011;7652;53.584;9.998;2023-07-08T17:18:22;4.27;;;2.60;;
15102;SDS011;7652;53.584;9.998;2023-07-08T17:21:44;3.10;;;2.30;;
15102;SDS011;7652;53.584;9.998;2023-07-08T17:25:08;3.47;;;2.60;;
15102;SDS011;7652;53.584;9.998;2023-07-08T17:28:34;4.57;;;2.47;;
15102;SDS011;7652;53.584;9.998;2023-07-08T17:31:57;3.90;;;2.80;;
15102;SDS011;7652;53.584;9.998;2023-07-08T17:35:24;3.17;;;2.87;;
15102;SDS011;7652;53.584;9.998;2023-07-08T17:38:47;3.50;;;3.20;;
15102;SDS011;7652;53.584;9.998;2023-07-08T17:42:09;3.20;;;2.90;;
15102;SDS011;7652;53.584;9.998;2023-07-08T17:45:33;3.60;;;2.53;;
15102;SDS011;7652;53.584;9.998;2023-07-08T17:48:58;3.33;;;3.00;;
15102;SDS011;7652;53.584;9.998;2023-07-08T17:52:22;3.80;;;2.80;;
15102;SDS011;7652;53.584;9.998;2023-07-08T17:55:43;3.23;;;2.93;;
15102;SDS011;7652;53.584;9.998;2023-07-08T17:59:06;3.47;;;2.63;;
15102;SDS011;7652;53.584;9.998;2023-07-08T18:02:34;5.37;;;3.10;;
15102;SDS011;7652;53.584;9.998;2023-07-08T18:05:57;4.23;;;2.83;;
15102;SDS011;7652;53.584;9.998;2023-07-08T18:09:19;3.30;;;3.00;;
15102;SDS011;7652;53.584;9.998;2023-07-08T18:12:41;4.23;;;3.03;;
15102;SDS011;7652;53.584;9.998;2023-07-08T18:16:04;4.07;;;2.20;;
15102;SDS011;7652;53.584;9.998;2023-07-08T18:19:31;6.03;;;2.70;;
15102;SDS011;7652;53.584;9.998;2023-07-08T18:22:53;4.40;;;2.33;;
15102;SDS011;7652;53.584;9.998;2023-07-08T18:26:16;2.90;;;2.50;;
15102;SDS011;7652;53.584;9.998;2023-07-08T18:29:38;2.73;;;2.53;;
15102;SDS011;7652;53.584;9.998;2023-07-08T18:33:00;2.97;;;2.40;;
15102;SDS011;7652;53.584;9.998;2023-07-08T18:36:22;5.93;;;2.67;;
15102;SDS011;7652;53.584;9.998;2023-07-08T18:39:45;3.87;;;2.93;;
15102;SDS011;7652;53.584;9.998;2023-07-08T18:43:10;2.77;;;2.33;;
15102;SDS011;7652;53.584;9.998;2023-07-08T18:46:36;3.60;;;2.77;;
15102;SDS011;7652;53.584;9.998;2023-07-08T18:49:57;3.90;;;2.33;;
15102;SDS011;7652;53.584;9.998;2023-07-08T18:53:20;2.60;;;2.40;;
15102;SDS011;7652;53.584;9.998;2023-07-08T18:56:44;2.80;;;2.13;;
15102;SDS011;7652;53.584;9.998;2023-07-08T19:00:09;2.60;;;2.30;;
15102;SDS011;7652;53.584;9.998;2023-07-08T19:03:32;4.73;;;2.90;;
15102;SDS011;7652;53.584;9.998;2023-07-08T19:06:59;2.53;;;2.27;;
15102;SDS011;7652;53.584;9.998;2023-07-08T19:10:23;4.30;;;2.30;;
15102;SDS011;7652;53.584;9.998;2023-07-08T19:13:50;3.03;;;2.40;;
15102;SDS011;7652;53.584;9.998;2023-07-08T19:17:12;5.07;;;2.93;;
15102;SDS011;7652;53.584;9.998;2023-07-08T19:20:34;3.27;;;2.60;;
15102;SDS011;7652;53.584;9.998;2023-07-08T19:23:57;4.47;;;3.00;;
15102;SDS011;7652;53.584;9.998;2023-07-08T19:27:18;3.70;;;2.80;;
15102;SDS011;7652;53.584;9.998;2023-07-08T19:30:41;3.37;;;3.00;;
15102;SDS011;7652;53.584;9.998;2023-07-08T19:34:10;4.13;;;2.67;;
15102;SDS011;7652;53.584;9.998;2023-07-08T19:37:33;5.97;;;2.77;;
15102;SDS011;7652;53.584;9.998;2023-07-08T19:40:55;3.97;;;3.00;;
15102;SDS011;7652;53.584;9.998;2023-07-08T19:44:17;3.97;;;2.77;;
15102;SDS011;7652;53.584;9.998;2023-07-08T19:47:45;3.27;;;2.60;;
15102;SDS011;7652;53.584;9.998;2023-07-08T19:51:07;6.07;;;2.80;;
15102;SDS011;7652;53.584;9.998;2023-07-08T19:54:28;3.80;;;2.80;;
15102;SDS011;7652;53.584;9.998;2023-07-08T19:57:50;4.47;;;2.40;;
15102;SDS011;7652;53.584;9.998;2023-07-08T20:01:15;3.87;;;2.53;;
15102;SDS011;7652;53.584;9.998;2023-07-08T20:04:38;4.50;;;2.67;;
15102;SDS011;7652;53.584;9.998;2023-07-08T20:08:00;4.20;;;2.83;;
15102;SDS011;7652;53.584;9.998;2023-07-08T20:11:23;3.93;;;2.70;;
15102;SDS011;7652;53.584;9.998;2023-07-08T20:14:45;5.07;;;3.23;;
15102;SDS011;7652;53.584;9.998;2023-07-08T20:18:07;3.30;;;2.90;;
15102;SDS011;7652;53.584;9.998;2023-07-08T20:21:31;3.83;;;2.93;;
15102;SDS011;7652;53.584;9.998;2023-07-08T20:24:53;3.43;;;2.50;;
15102;SDS011;7652;53.584;9.998;2023-07-08T20:28:14;4.17;;;3.17;;
15102;SDS011;7652;53.584;9.998;2023-07-08T20:31:36;6.07;;;3.00;;
15102;SDS011;7652;53.584;9.998;2023-07-08T20:34:58;4.63;;;2.80;;
15102;SDS011;7652;53.584;9.998;2023-07-08T20:38:21;3.87;;;3.20;;
15102;SDS011;7652;53.584;9.998;2023-07-08T20:41:43;3.40;;;2.70;;
15102;SDS011;7652;53.584;9.998;2023-07-08T20:45:05;5.00;;;2.53;;
15102;SDS011;7652;53.584;9.998;2023-07-08T20:48:28;4.80;;;2.67;;
15102;SDS011;7652;53.584;9.998;2023-07-08T20:51:51;3.43;;;2.77;;